sensor_id;sensor_type;location;lat;lon;timestamp;P1;durP1;ratioP1;P2;durP2;ratioP2
10005;SDS011;5042;42.626;23.382;2022-09-11T00:00:39;2.95;;;2.47;;
10005;SDS011;5042;42.626;23.382;2022-09-11T00:03:06;3.00;;;2.70;;
10005;SDS011;5042;42.626;23.382;2022-09-11T00:05:35;3.00;;;2.80;;
10005;SDS011;5042;42.626;23.382;2022-09-11T00:08:03;3.08;;;2.70;;
10005;SDS011;5042;42.626;23.382;2022-09-11T00:10:32;4.60;;;2.97;;
10005;SDS011;5042;42.626;23.382;2022-09-11T00:13:04;4.93;;;3.45;;
10005;SDS011;5042;42.626;23.382;2022-09-11T00:15:35;4.32;;;3.40;;
10005;SDS011;5042;42.626;23.382;2022-09-11T00:18:03;3.67;;;3.30;;
10005;SDS011;5042;42.626;23.382;2022-09-11T00:20:31;4.80;;;3.30;;
10005;SDS011;5042;42.626;23.382;2022-09-11T00:22:58;6.40;;;3.90;;
10005;SDS011;5042;42.626;23.382;2022-09-11T00:25:29;4.40;;;3.85;;
10005;SDS011;5042;42.626;23.382;2022-09-11T00:27:57;4.85;;;4.13;;
10005;SDS011;5042;42.626;23.382;2022-09-11T00:30:24;3.95;;;3.55;;
10005;SDS011;5042;42.626;23.382;2022-09-11T00:32:52;3.55;;;3.22;;
10005;SDS011;5042;42.626;23.382;2022-09-11T00:35:19;4.10;;;3.70;;
10005;SDS011;5042;42.626;23.382;2022-09-11T00:37:46;5.25;;;3.95;;
10005;SDS011;5042;42.626;23.382;2022-09-11T00:40:14;6.00;;;3.92;;
10005;SDS011;5042;42.626;23.382;2022-09-11T00:42:41;5.70;;;3.63;;
10005;SDS011;5042;42.626;23.382;2022-09-11T00:45:15;6.00;;;4.28;;
10005;SDS011;5042;42.626;23.382;2022-09-11T00:47:44;5.07;;;4.32;;
10005;SDS011;5042;42.626;23.382;2022-09-11T00:50:13;4.32;;;3.92;;
10005;SDS011;5042;42.626;23.382;2022-09-11T00:52:47;4.93;;;4.30;;
10005;SDS011;5042;42.626;23.382;2022-09-11T00:55:17;4.60;;;4.18;;
10005;SDS011;5042;42.626;23.382;2022-09-11T00:57:48;3.92;;;3.42;;
10005;SDS011;5042;42.626;23.382;2022-09-11T01:00:17;4.68;;;4.13;;
10005;SDS011;5042;42.626;23.382;2022-09-11T01:02:45;6.35;;;3.90;;
10005;SDS011;5042;42.626;23.382;2022-09-11T01:05:14;4.40;;;4.00;;
10005;SDS011;5042;42.626;23.382;2022-09-11T01:07:42;4.43;;;3.92;;
10005;SDS011;5042;42.626;23.382;2022-09-11T01:10:11;4.55;;;4.15;;
10005;SDS011;5042;42.626;23.382;2022-09-11T01:12:41;5.95;;;4.70;;
10005;SDS011;5042;42.626;23.382;2022-09-11T01:15:16;4.30;;;3.90;;
10005;SDS011;5042;42.626;23.382;2022-09-11T01:17:57;4.55;;;3.65;;
10005;SDS011;5042;42.626;23.382;2022-09-11T01:20:34;4.05;;;3.65;;
10005;SDS011;5042;42.626;23.382;2022-09-11T01:26:22;5.70;;;3.72;;
10005;SDS011;5042;42.626;23.382;2022-09-11T01:29:04;3.95;;;3.30;;
10005;SDS011;5042;42.626;23.382;2022-09-11T01:31:38;5.18;;;3.63;;
10005;SDS011;5042;42.626;23.382;2022-09-11T01:34:12;4.43;;;3.85;;
10005;SDS011;5042;42.626;23.382;2022-09-11T01:36:47;4.05;;;3.65;;
10005;SDS011;5042;42.626;23.382;2022-09-11T01:39:18;3.97;;;3.58;;
10005;SDS011;5042;42.626;23.382;2022-09-11T01:41:49;6.47;;;3.60;;
10005;SDS011;5042;42.626;23.382;2022-09-11T01:44:21;5.10;;;4.25;;
10005;SDS011;5042;42.626;23.382;2022-09-11T01:46:53;4.63;;;4.15;;
10005;SDS011;5042;42.626;23.382;2022-09-11T01:49:22;4.35;;;3.85;;
10005;SDS011;5042;42.626;23.382;2022-09-11T01:51:55;4.53;;;3.75;;
10005;SDS011;5042;42.626;23.382;2022-09-11T01:54:28;3.97;;;3.58;;
10005;SDS011;5042;42.626;23.382;2022-09-11T01:56:59;4.13;;;3.72;;
10005;SDS011;5042;42.626;23.382;2022-09-11T01:59:34;3.50;;;3.20;;
10005;SDS011;5042;42.626;23.382;2022-09-11T02:02:05;3.72;;;3.40;;
10005;SDS011;5042;42.626;23.382;2022-09-11T02:04:35;4.35;;;3.63;;
10005;SDS011;5042;42.626;23.382;2022-09-11T02:07:06;4.13;;;3.42;;
10005;SDS011;5042;42.626;23.382;2022-09-11T02:09:37;5.80;;;4.10;;
10005;SDS011;5042;42.626;23.382;2022-09-11T02:12:07;4.03;;;3.40;;
10005;SDS011;5042;42.626;23.382;2022-09-11T02:14:40;3.80;;;3.40;;
10005;SDS011;5042;42.626;23.382;2022-09-11T02:17:11;4.50;;;3.22;;
10005;SDS011;5042;42.626;23.382;2022-09-11T02:19:43;3.85;;;2.70;;
10005;SDS011;5042;42.626;23.382;2022-09-11T02:22:09;3.15;;;2.85;;
10005;SDS011;5042;42.626;23.382;2022-09-11T02:24:37;3.10;;;2.78;;
10005;SDS011;5042;42.626;23.382;2022-09-11T02:27:04;4.13;;;2.83;;
10005;SDS011;5042;42.626;23.382;2022-09-11T02:29:33;3.33;;;2.65;;
10005;SDS011;5042;42.626;23.382;2022-09-11T02:32:02;2.42;;;2.22;;
10005;SDS011;5042;42.626;23.382;2022-09-11T02:34:30;4.05;;;2.53;;
10005;SDS011;5042;42.626;23.382;2022-09-11T02:37:03;2.67;;;2.47;;
10005;SDS011;5042;42.626;23.382;2022-09-11T02:42:42;3.40;;;2.55;;
10005;SDS011;5042;42.626;23.382;2022-09-11T02:45:28;2.28;;;2.13;;
10005;SDS011;5042;42.626;23.382;2022-09-11T02:48:10;3.10;;;2.38;;
10005;SDS011;5042;42.626;23.382;2022-09-11T02:50:49;3.30;;;2.72;;
10005;SDS011;5042;42.626;23.382;2022-09-11T02:53:26;2.70;;;2.50;;
10005;SDS011;5042;42.626;23.382;2022-09-11T02:56:02;2.70;;;2.50;;
10005;SDS011;5042;42.626;23.382;2022-09-11T02:58:34;2.72;;;2.53;;
10005;SDS011;5042;42.626;23.382;2022-09-11T03:01:06;2.67;;;2.47;;
10005;SDS011;5042;42.626;23.382;2022-09-11T03:03:38;2.90;;;2.70;;
10005;SDS011;5042;42.626;23.382;2022-09-11T03:06:07;2.78;;;2.58;;
10005;SDS011;5042;42.626;23.382;2022-09-11T03:08:37;2.42;;;2.20;;
10005;SDS011;5042;42.626;23.382;2022-09-11T03:11:05;3.25;;;2.50;;
10005;SDS011;5042;42.626;23.382;2022-09-11T03:13:32;2.58;;;2.38;;
10005;SDS011;5042;42.626;23.382;2022-09-11T03:16:00;2.80;;;2.60;;
10005;SDS011;5042;42.626;23.382;2022-09-11T03:18:28;3.27;;;2.97;;
10005;SDS011;5042;42.626;23.382;2022-09-11T03:20:57;3.00;;;2.70;;
10005;SDS011;5042;42.626;23.382;2022-09-11T03:23:23;2.90;;;2.70;;
10005;SDS011;5042;42.626;23.382;2022-09-11T03:25:50;3.20;;;2.63;;
10005;SDS011;5042;42.626;23.382;2022-09-11T03:28:17;2.77;;;2.53;;
10005;SDS011;5042;42.626;23.382;2022-09-11T03:30:44;3.42;;;2.72;;
10005;SDS011;5042;42.626;23.382;2022-09-11T03:33:11;2.58;;;2.38;;
10005;SDS011;5042;42.626;23.382;2022-09-11T03:35:37;4.90;;;2.60;;
10005;SDS011;5042;42.626;23.382;2022-09-11T03:38:06;3.42;;;2.58;;
10005;SDS011;5042;42.626;23.382;2022-09-11T03:40:32;3.00;;;2.72;;
10005;SDS011;5042;42.626;23.382;2022-09-11T03:42:59;2.88;;;2.67;;
10005;SDS011;5042;42.626;23.382;2022-09-11T03:45:26;2.80;;;2.60;;
10005;SDS011;5042;42.626;23.382;2022-09-11T03:47:53;3.40;;;3.10;;
10005;SDS011;5042;42.626;23.382;2022-09-11T03:50:21;3.20;;;2.90;;
10005;SDS011;5042;42.626;23.382;2022-09-11T03:52:47;3.00;;;2.70;;
10005;SDS011;5042;42.626;23.382;2022-09-11T03:55:16;4.05;;;2.78;;
10005;SDS011;5042;42.626;23.382;2022-09-11T03:57:42;3.13;;;2.85;;
10005;SDS011;5042;42.626;23.382;2022-09-11T04:00:09;4.28;;;3.00;;
10005;SDS011;5042;42.626;23.382;2022-09-11T04:02:37;3.25;;;2.95;;
10005;SDS011;5042;42.626;23.382;2022-09-11T04:05:04;3.17;;;2.88;;
10005;SDS011;5042;42.626;23.382;2022-09-11T04:07:31;3.78;;;3.47;;
10005;SDS011;5042;42.626;23.382;2022-09-11T04:09:58;4.28;;;3.50;;
10005;SDS011;5042;42.626;23.382;2022-09-11T04:12:26;3.33;;;3.03;;
10005;SDS011;5042;42.626;23.382;2022-09-11T04:14:53;4.00;;;3.53;;
10005;SDS011;5042;42.626;23.382;2022-09-11T04:17:21;3.47;;;3.15;;
10005;SDS011;5042;42.626;23.382;2022-09-11T04:19:48;4.75;;;3.65;;
10005;SDS011;5042;42.626;23.382;2022-09-11T04:22:15;3.80;;;3.45;;
10005;SDS011;5042;42.626;23.382;2022-09-11T04:24:42;3.33;;;3.03;;
10005;SDS011;5042;42.626;23.382;2022-09-11T04:27:08;4.30;;;3.22;;
10005;SDS011;5042;42.626;23.382;2022-09-11T04:29:38;3.25;;;2.95;;
10005;SDS011;5042;42.626;23.382;2022-09-11T04:32:05;3.42;;;3.10;;
10005;SDS011;5042;42.626;23.382;2022-09-11T04:34:31;3.63;;;3.33;;
10005;SDS011;5042;42.626;23.382;2022-09-11T04:36:58;5.43;;;3.70;;
10005;SDS011;5042;42.626;23.382;2022-09-11T04:39:25;3.70;;;3.30;;
10005;SDS011;5042;42.626;23.382;2022-09-11T04:41:52;6.40;;;3.40;;
10005;SDS011;5042;42.626;23.382;2022-09-11T04:44:20;4.88;;;4.03;;
10005;SDS011;5042;42.626;23.382;2022-09-11T04:46:48;3.53;;;3.22;;
10005;SDS011;5042;42.626;23.382;2022-09-11T04:49:15;3.95;;;3.60;;
10005;SDS011;5042;42.626;23.382;2022-09-11T04:51:42;3.22;;;2.92;;
10005;SDS011;5042;42.626;23.382;2022-09-11T04:54:09;3.58;;;3.03;;
10005;SDS011;5042;42.626;23.382;2022-09-11T04:56:39;3.70;;;3.25;;
10005;SDS011;5042;42.626;23.382;2022-09-11T04:59:06;3.63;;;3.30;;
10005;SDS011;5042;42.626;23.382;2022-09-11T05:01:37;3.80;;;3.40;;
10005;SDS011;5042;42.626;23.382;2022-09-11T05:04:06;5.28;;;3.55;;
10005;SDS011;5042;42.626;23.382;2022-09-11T05:06:34;4.05;;;3.38;;
10005;SDS011;5042;42.626;23.382;2022-09-11T05:09:02;4.05;;;3.67;;
10005;SDS011;5042;42.626;23.382;2022-09-11T05:11:31;3.95;;;3.50;;
10005;SDS011;5042;42.626;23.382;2022-09-11T05:13:58;4.20;;;3.80;;
10005;SDS011;5042;42.626;23.382;2022-09-11T05:16:25;5.28;;;3.80;;
10005;SDS011;5042;42.626;23.382;2022-09-11T05:18:53;4.07;;;3.67;;
10005;SDS011;5042;42.626;23.382;2022-09-11T05:21:23;4.30;;;3.90;;
10005;SDS011;5042;42.626;23.382;2022-09-11T05:23:51;4.38;;;3.97;;
10005;SDS011;5042;42.626;23.382;2022-09-11T05:26:19;5.18;;;3.92;;
10005;SDS011;5042;42.626;23.382;2022-09-11T05:28:50;6.00;;;4.30;;
10005;SDS011;5042;42.626;23.382;2022-09-11T05:31:19;5.13;;;4.63;;
10005;SDS011;5042;42.626;23.382;2022-09-11T05:33:46;5.10;;;4.32;;
10005;SDS011;5042;42.626;23.382;2022-09-11T05:36:14;5.05;;;4.15;;
10005;SDS011;5042;42.626;23.382;2022-09-11T05:38:43;6.05;;;4.40;;
10005;SDS011;5042;42.626;23.382;2022-09-11T05:41:11;4.32;;;3.92;;
10005;SDS011;5042;42.626;23.382;2022-09-11T05:43:39;5.43;;;3.85;;
10005;SDS011;5042;42.626;23.382;2022-09-11T05:46:09;4.38;;;3.70;;
10005;SDS011;5042;42.626;23.382;2022-09-11T05:48:38;4.07;;;3.67;;
10005;SDS011;5042;42.626;23.382;2022-09-11T05:51:06;4.22;;;3.83;;
10005;SDS011;5042;42.626;23.382;2022-09-11T05:53:35;3.83;;;3.47;;
10005;SDS011;5042;42.626;23.382;2022-09-11T05:56:08;4.32;;;3.92;;
10005;SDS011;5042;42.626;23.382;2022-09-11T05:58:35;4.32;;;3.65;;
10005;SDS011;5042;42.626;23.382;2022-09-11T06:01:03;4.38;;;3.45;;
10005;SDS011;5042;42.626;23.382;2022-09-11T06:03:32;3.92;;;3.17;;
10005;SDS011;5042;42.626;23.382;2022-09-11T06:05:59;3.70;;;3.38;;
10005;SDS011;5042;42.626;23.382;2022-09-11T06:08:27;4.53;;;3.35;;
10005;SDS011;5042;42.626;23.382;2022-09-11T06:10:55;4.95;;;3.25;;
10005;SDS011;5042;42.626;23.382;2022-09-11T06:13:25;4.40;;;3.47;;
10005;SDS011;5042;42.626;23.382;2022-09-11T06:15:54;3.50;;;3.17;;
10005;SDS011;5042;42.626;23.382;2022-09-11T06:18:21;5.00;;;3.63;;
10005;SDS011;5042;42.626;23.382;2022-09-11T06:20:54;4.18;;;3.78;;
10005;SDS011;5042;42.626;23.382;2022-09-11T06:23:21;5.53;;;3.78;;
10005;SDS011;5042;42.626;23.382;2022-09-11T06:25:48;4.05;;;3.63;;
10005;SDS011;5042;42.626;23.382;2022-09-11T06:28:18;3.97;;;3.67;;
10005;SDS011;5042;42.626;23.382;2022-09-11T06:30:48;4.72;;;3.67;;
10005;SDS011;5042;42.626;23.382;2022-09-11T06:33:15;4.55;;;3.80;;
10005;SDS011;5042;42.626;23.382;2022-09-11T06:35:54;4.40;;;4.00;;
10005;SDS011;5042;42.626;23.382;2022-09-11T06:38:22;4.25;;;3.72;;
10005;SDS011;5042;42.626;23.382;2022-09-11T06:40:49;4.30;;;3.85;;
10005;SDS011;5042;42.626;23.382;2022-09-11T06:43:16;4.90;;;3.90;;
10005;SDS011;5042;42.626;23.382;2022-09-11T06:45:43;4.53;;;3.75;;
10005;SDS011;5042;42.626;23.382;2022-09-11T06:48:13;5.68;;;4.22;;
10005;SDS011;5042;42.626;23.382;2022-09-11T06:50:40;4.43;;;3.92;;
10005;SDS011;5042;42.626;23.382;2022-09-11T06:53:07;4.03;;;3.42;;
10005;SDS011;5042;42.626;23.382;2022-09-11T06:55:35;4.25;;;3.85;;
10005;SDS011;5042;42.626;23.382;2022-09-11T06:58:02;4.28;;;3.88;;
10005;SDS011;5042;42.626;23.382;2022-09-11T07:00:29;4.82;;;4.22;;
10005;SDS011;5042;42.626;23.382;2022-09-11T07:02:56;4.78;;;4.38;;
10005;SDS011;5042;42.626;23.382;2022-09-11T07:05:24;4.03;;;3.63;;
10005;SDS011;5042;42.626;23.382;2022-09-11T07:07:51;4.57;;;3.75;;
10005;SDS011;5042;42.626;23.382;2022-09-11T07:10:19;3.55;;;3.25;;
10005;SDS011;5042;42.626;23.382;2022-09-11T07:12:46;3.53;;;3.22;;
10005;SDS011;5042;42.626;23.382;2022-09-11T07:15:13;4.50;;;3.33;;
10005;SDS011;5042;42.626;23.382;2022-09-11T07:17:41;5.47;;;3.25;;
10005;SDS011;5042;42.626;23.382;2022-09-11T07:20:08;2.72;;;2.53;;
10005;SDS011;5042;42.626;23.382;2022-09-11T07:22:36;5.18;;;3.00;;
10005;SDS011;5042;42.626;23.382;2022-09-11T07:25:04;2.70;;;2.50;;
10005;SDS011;5042;42.626;23.382;2022-09-11T07:27:32;3.30;;;3.00;;
10005;SDS011;5042;42.626;23.382;2022-09-11T07:29:58;3.03;;;2.83;;
10005;SDS011;5042;42.626;23.382;2022-09-11T07:32:25;3.25;;;2.95;;
10005;SDS011;5042;42.626;23.382;2022-09-11T07:34:52;2.90;;;2.70;;
10005;SDS011;5042;42.626;23.382;2022-09-11T07:37:19;2.83;;;2.63;;
10005;SDS011;5042;42.626;23.382;2022-09-11T07:39:47;3.17;;;2.88;;
10005;SDS011;5042;42.626;23.382;2022-09-11T07:42:14;3.42;;;2.72;;
10005;SDS011;5042;42.626;23.382;2022-09-11T07:44:41;3.28;;;2.90;;
10005;SDS011;5042;42.626;23.382;2022-09-11T07:47:07;3.42;;;3.13;;
10005;SDS011;5042;42.626;23.382;2022-09-11T07:49:34;3.70;;;3.20;;
10005;SDS011;5042;42.626;23.382;2022-09-11T07:52:01;3.33;;;3.03;;
10005;SDS011;5042;42.626;23.382;2022-09-11T07:54:28;3.50;;;3.20;;
10005;SDS011;5042;42.626;23.382;2022-09-11T07:56:56;4.03;;;2.83;;
10005;SDS011;5042;42.626;23.382;2022-09-11T07:59:23;4.05;;;2.95;;
10005;SDS011;5042;42.626;23.382;2022-09-11T08:01:50;3.50;;;3.20;;
10005;SDS011;5042;42.626;23.382;2022-09-11T08:04:17;3.72;;;3.22;;
10005;SDS011;5042;42.626;23.382;2022-09-11T08:06:44;3.67;;;2.97;;
10005;SDS011;5042;42.626;23.382;2022-09-11T08:09:12;3.60;;;3.30;;
10005;SDS011;5042;42.626;23.382;2022-09-11T08:11:40;3.50;;;3.20;;
10005;SDS011;5042;42.626;23.382;2022-09-11T08:14:10;3.17;;;2.88;;
10005;SDS011;5042;42.626;23.382;2022-09-11T08:16:37;4.30;;;3.30;;
10005;SDS011;5042;42.626;23.382;2022-09-11T08:19:04;2.90;;;2.70;;
10005;SDS011;5042;42.626;23.382;2022-09-11T08:21:32;3.35;;;3.05;;
10005;SDS011;5042;42.626;23.382;2022-09-11T08:23:58;3.55;;;3.20;;
10005;SDS011;5042;42.626;23.382;2022-09-11T08:26:26;4.05;;;3.65;;
10005;SDS011;5042;42.626;23.382;2022-09-11T08:28:56;4.15;;;3.17;;
10005;SDS011;5042;42.626;23.382;2022-09-11T08:31:25;4.22;;;3.83;;
10005;SDS011;5042;42.626;23.382;2022-09-11T08:33:53;3.90;;;3.33;;
10005;SDS011;5042;42.626;23.382;2022-09-11T08:36:20;3.70;;;3.28;;
10005;SDS011;5042;42.626;23.382;2022-09-11T08:38:47;3.60;;;3.30;;
10005;SDS011;5042;42.626;23.382;2022-09-11T08:41:18;5.85;;;3.45;;
10005;SDS011;5042;42.626;23.382;2022-09-11T08:43:55;3.75;;;3.45;;
10005;SDS011;5042;42.626;23.382;2022-09-11T08:46:28;4.18;;;3.20;;
10005;SDS011;5042;42.626;23.382;2022-09-11T08:49:01;3.50;;;3.20;;
10005;SDS011;5042;42.626;23.382;2022-09-11T08:51:33;5.20;;;3.75;;
10005;SDS011;5042;42.626;23.382;2022-09-11T08:54:00;3.35;;;3.05;;
10005;SDS011;5042;42.626;23.382;2022-09-11T08:56:28;4.15;;;3.50;;
10005;SDS011;5042;42.626;23.382;2022-09-11T08:59:07;4.55;;;3.63;;
10005;SDS011;5042;42.626;23.382;2022-09-11T09:01:44;4.10;;;3.72;;
10005;SDS011;5042;42.626;23.382;2022-09-11T09:04:24;4.10;;;3.70;;
10005;SDS011;5042;42.626;23.382;2022-09-11T09:07:06;3.90;;;3.50;;
10005;SDS011;5042;42.626;23.382;2022-09-11T09:09:41;3.72;;;3.38;;
10005;SDS011;5042;42.626;23.382;2022-09-11T09:12:17;5.53;;;3.75;;
10005;SDS011;5042;42.626;23.382;2022-09-11T09:15:04;3.83;;;3.40;;
10005;SDS011;5042;42.626;23.382;2022-09-11T09:17:43;3.78;;;3.47;;
10005;SDS011;5042;42.626;23.382;2022-09-11T09:20:14;3.67;;;3.20;;
10005;SDS011;5042;42.626;23.382;2022-09-11T09:22:46;4.05;;;3.67;;
10005;SDS011;5042;42.626;23.382;2022-09-11T09:25:18;3.72;;;3.42;;
10005;SDS011;5042;42.626;23.382;2022-09-11T09:27:48;4.28;;;3.70;;
10005;SDS011;5042;42.626;23.382;2022-09-11T09:30:20;4.88;;;3.50;;
10005;SDS011;5042;42.626;23.382;2022-09-11T09:32:51;3.60;;;3.30;;
10005;SDS011;5042;42.626;23.382;2022-09-11T09:35:22;4.35;;;3.80;;
10005;SDS011;5042;42.626;23.382;2022-09-11T09:37:51;4.97;;;3.67;;
10005;SDS011;5042;42.626;23.382;2022-09-11T09:40:18;4.85;;;3.60;;
10005;SDS011;5042;42.626;23.382;2022-09-11T09:42:59;3.53;;;3.22;;
10005;SDS011;5042;42.626;23.382;2022-09-11T09:45:38;3.55;;;3.22;;
10005;SDS011;5042;42.626;23.382;2022-09-11T09:48:15;3.22;;;2.92;;
10005;SDS011;5042;42.626;23.382;2022-09-11T09:50:42;3.67;;;3.17;;
10005;SDS011;5042;42.626;23.382;2022-09-11T09:53:12;3.55;;;3.25;;
10005;SDS011;5042;42.626;23.382;2022-09-11T09:55:44;3.42;;;3.13;;
10005;SDS011;5042;42.626;23.382;2022-09-11T09:58:12;3.30;;;3.00;;
10005;SDS011;5042;42.626;23.382;2022-09-11T10:00:39;3.60;;;3.17;;
10005;SDS011;5042;42.626;23.382;2022-09-11T10:03:20;3.45;;;3.15;;
10005;SDS011;5042;42.626;23.382;2022-09-11T10:05:49;3.50;;;3.20;;
10005;SDS011;5042;42.626;23.382;2022-09-11T10:11:03;4.07;;;3.33;;
10005;SDS011;5042;42.626;23.382;2022-09-11T10:13:34;3.30;;;3.00;;
10005;SDS011;5042;42.626;23.382;2022-09-11T10:16:17;4.05;;;3.50;;
10005;SDS011;5042;42.626;23.382;2022-09-11T10:18:47;6.22;;;3.45;;
10005;SDS011;5042;42.626;23.382;2022-09-11T10:21:19;3.45;;;3.08;;
10005;SDS011;5042;42.626;23.382;2022-09-11T10:23:49;3.30;;;3.00;;
10005;SDS011;5042;42.626;23.382;2022-09-11T10:26:17;2.70;;;2.50;;
10005;SDS011;5042;42.626;23.382;2022-09-11T10:28:49;3.88;;;3.08;;
10005;SDS011;5042;42.626;23.382;2022-09-11T10:31:18;3.00;;;2.70;;
10005;SDS011;5042;42.626;23.382;2022-09-11T10:33:49;2.83;;;2.63;;
10005;SDS011;5042;42.626;23.382;2022-09-11T10:36:20;3.65;;;3.17;;
10005;SDS011;5042;42.626;23.382;2022-09-11T10:38:49;4.55;;;3.35;;
10005;SDS011;5042;42.626;23.382;2022-09-11T10:41:18;2.65;;;2.42;;
10005;SDS011;5042;42.626;23.382;2022-09-11T10:43:54;2.70;;;2.50;;
10005;SDS011;5042;42.626;23.382;2022-09-11T10:46:25;3.25;;;2.92;;
10005;SDS011;5042;42.626;23.382;2022-09-11T10:48:56;3.63;;;3.33;;
10005;SDS011;5042;42.626;23.382;2022-09-11T10:51:25;3.47;;;3.17;;
10005;SDS011;5042;42.626;23.382;2022-09-11T10:56:46;3.10;;;2.75;;
10005;SDS011;5042;42.626;23.382;2022-09-11T10:59:32;3.00;;;2.78;;
10005;SDS011;5042;42.626;23.382;2022-09-11T11:02:14;3.08;;;2.83;;
10005;SDS011;5042;42.626;23.382;2022-09-11T11:04:46;2.97;;;2.70;;
10005;SDS011;5042;42.626;23.382;2022-09-11T11:07:18;3.10;;;2.90;;
10005;SDS011;5042;42.626;23.382;2022-09-11T11:10:12;3.25;;;2.95;;
10005;SDS011;5042;42.626;23.382;2022-09-11T11:12:54;3.47;;;2.78;;
10005;SDS011;5042;42.626;23.382;2022-09-11T11:15:31;3.15;;;2.85;;
10005;SDS011;5042;42.626;23.382;2022-09-11T11:21:12;3.05;;;2.85;;
10005;SDS011;5042;42.626;23.382;2022-09-11T11:23:53;3.78;;;3.47;;
10005;SDS011;5042;42.626;23.382;2022-09-11T11:26:39;3.53;;;3.22;;
10005;SDS011;5042;42.626;23.382;2022-09-11T11:29:20;3.50;;;3.20;;
10005;SDS011;5042;42.626;23.382;2022-09-11T11:32:13;3.70;;;3.40;;
10005;SDS011;5042;42.626;23.382;2022-09-11T11:34:58;3.50;;;3.20;;
10005;SDS011;5042;42.626;23.382;2022-09-11T11:37:39;3.50;;;3.20;;
10005;SDS011;5042;42.626;23.382;2022-09-11T11:40:09;3.47;;;3.10;;
10005;SDS011;5042;42.626;23.382;2022-09-11T11:42:44;3.70;;;3.35;;
10005;SDS011;5042;42.626;23.382;2022-09-11T11:45:17;3.63;;;3.33;;
10005;SDS011;5042;42.626;23.382;2022-09-11T11:47:48;4.38;;;3.47;;
10005;SDS011;5042;42.626;23.382;2022-09-11T11:50:22;3.25;;;2.90;;
10005;SDS011;5042;42.626;23.382;2022-09-11T11:52:55;3.08;;;2.88;;
10005;SDS011;5042;42.626;23.382;2022-09-11T11:55:31;3.30;;;3.00;;
10005;SDS011;5042;42.626;23.382;2022-09-11T11:58:11;3.13;;;2.83;;
10005;SDS011;5042;42.626;23.382;2022-09-11T12:00:45;3.35;;;3.05;;
10005;SDS011;5042;42.626;23.382;2022-09-11T12:03:17;3.03;;;2.83;;
10005;SDS011;5042;42.626;23.382;2022-09-11T12:05:48;2.60;;;2.40;;
10005;SDS011;5042;42.626;23.382;2022-09-11T12:08:16;3.40;;;3.10;;
10005;SDS011;5042;42.626;23.382;2022-09-11T12:10:44;3.20;;;2.90;;
10005;SDS011;5042;42.626;23.382;2022-09-11T12:13:20;3.70;;;3.28;;
10005;SDS011;5042;42.626;23.382;2022-09-11T12:15:59;3.60;;;3.30;;
10005;SDS011;5042;42.626;23.382;2022-09-11T12:18:30;3.15;;;2.95;;
10005;SDS011;5042;42.626;23.382;2022-09-11T12:24:15;2.88;;;2.67;;
10005;SDS011;5042;42.626;23.382;2022-09-11T12:26:43;3.80;;;3.40;;
10005;SDS011;5042;42.626;23.382;2022-09-11T12:38:00;3.28;;;2.72;;
10005;SDS011;5042;42.626;23.382;2022-09-11T12:40:39;3.20;;;2.90;;
10005;SDS011;5042;42.626;23.382;2022-09-11T12:43:14;4.35;;;3.75;;
10005;SDS011;5042;42.626;23.382;2022-09-11T12:45:56;3.65;;;3.35;;
10005;SDS011;5042;42.626;23.382;2022-09-11T12:48:23;3.58;;;3.28;;
10005;SDS011;5042;42.626;23.382;2022-09-11T12:51:01;4.90;;;3.30;;
10005;SDS011;5042;42.626;23.382;2022-09-11T12:53:31;3.55;;;3.20;;
10005;SDS011;5042;42.626;23.382;2022-09-11T12:56:03;5.28;;;3.35;;
10005;SDS011;5042;42.626;23.382;2022-09-11T12:58:32;5.00;;;3.25;;
10005;SDS011;5042;42.626;23.382;2022-09-11T13:01:04;3.42;;;3.13;;
10005;SDS011;5042;42.626;23.382;2022-09-11T13:03:38;3.53;;;3.00;;
10005;SDS011;5042;42.626;23.382;2022-09-11T13:06:14;2.83;;;2.63;;
10005;SDS011;5042;42.626;23.382;2022-09-11T13:08:44;3.40;;;3.10;;
10005;SDS011;5042;42.626;23.382;2022-09-11T13:17:16;3.40;;;3.10;;
10005;SDS011;5042;42.626;23.382;2022-09-11T13:19:50;3.10;;;2.80;;
10005;SDS011;5042;42.626;23.382;2022-09-11T13:22:19;3.42;;;3.13;;
10005;SDS011;5042;42.626;23.382;2022-09-11T13:24:48;2.78;;;2.58;;
10005;SDS011;5042;42.626;23.382;2022-09-11T13:27:19;3.13;;;2.90;;
10005;SDS011;5042;42.626;23.382;2022-09-11T13:29:50;4.28;;;2.95;;
10005;SDS011;5042;42.626;23.382;2022-09-11T13:32:19;3.53;;;3.17;;
10005;SDS011;5042;42.626;23.382;2022-09-11T13:34:47;3.25;;;2.90;;
10005;SDS011;5042;42.626;23.382;2022-09-11T13:37:22;3.08;;;2.78;;
10005;SDS011;5042;42.626;23.382;2022-09-11T13:39:58;3.47;;;3.17;;
10005;SDS011;5042;42.626;23.382;2022-09-11T13:42:27;2.85;;;2.65;;
10005;SDS011;5042;42.626;23.382;2022-09-11T13:44:55;3.50;;;3.00;;
10005;SDS011;5042;42.626;23.382;2022-09-11T13:47:25;3.20;;;2.90;;
10005;SDS011;5042;42.626;23.382;2022-09-11T13:49:53;3.20;;;2.90;;
10005;SDS011;5042;42.626;23.382;2022-09-11T13:52:23;3.90;;;2.83;;
10005;SDS011;5042;42.626;23.382;2022-09-11T13:54:53;3.85;;;3.10;;
10005;SDS011;5042;42.626;23.382;2022-09-11T13:57:23;3.35;;;3.05;;
10005;SDS011;5042;42.626;23.382;2022-09-11T13:59:53;3.45;;;3.15;;
10005;SDS011;5042;42.626;23.382;2022-09-11T14:02:29;4.50;;;3.80;;
10005;SDS011;5042;42.626;23.382;2022-09-11T14:05:16;4.18;;;3.60;;
10005;SDS011;5042;42.626;23.382;2022-09-11T14:07:53;4.22;;;3.58;;
10005;SDS011;5042;42.626;23.382;2022-09-11T14:10:24;3.63;;;3.25;;
10005;SDS011;5042;42.626;23.382;2022-09-11T14:12:57;4.03;;;3.45;;
10005;SDS011;5042;42.626;23.382;2022-09-11T14:15:34;3.90;;;3.50;;
10005;SDS011;5042;42.626;23.382;2022-09-11T14:18:05;3.47;;;3.05;;
10005;SDS011;5042;42.626;23.382;2022-09-11T14:20:39;2.85;;;2.63;;
10005;SDS011;5042;42.626;23.382;2022-09-11T14:23:12;2.97;;;2.67;;
10005;SDS011;5042;42.626;23.382;2022-09-11T14:26:03;3.53;;;3.13;;
10005;SDS011;5042;42.626;23.382;2022-09-11T14:28:35;3.67;;;2.75;;
10005;SDS011;5042;42.626;23.382;2022-09-11T14:31:09;3.67;;;3.38;;
10005;SDS011;5042;42.626;23.382;2022-09-11T14:33:38;3.45;;;3.15;;
10005;SDS011;5042;42.626;23.382;2022-09-11T14:36:08;6.40;;;3.22;;
10005;SDS011;5042;42.626;23.382;2022-09-11T14:38:41;3.40;;;3.10;;
10005;SDS011;5042;42.626;23.382;2022-09-11T14:41:08;3.33;;;3.03;;
10005;SDS011;5042;42.626;23.382;2022-09-11T14:43:36;3.13;;;2.92;;
10005;SDS011;5042;42.626;23.382;2022-09-11T14:46:03;4.13;;;3.13;;
10005;SDS011;5042;42.626;23.382;2022-09-11T14:48:32;3.95;;;2.97;;
10005;SDS011;5042;42.626;23.382;2022-09-11T14:51:01;3.30;;;3.00;;
10005;SDS011;5042;42.626;23.382;2022-09-11T14:53:31;3.30;;;2.97;;
10005;SDS011;5042;42.626;23.382;2022-09-11T14:56:00;3.70;;;3.08;;
10005;SDS011;5042;42.626;23.382;2022-09-11T14:58:28;3.00;;;2.67;;
10005;SDS011;5042;42.626;23.382;2022-09-11T15:00:56;3.45;;;2.90;;
10005;SDS011;5042;42.626;23.382;2022-09-11T15:03:23;3.15;;;2.85;;
10005;SDS011;5042;42.626;23.382;2022-09-11T15:05:52;3.25;;;2.90;;
10005;SDS011;5042;42.626;23.382;2022-09-11T15:08:21;2.92;;;2.63;;
10005;SDS011;5042;42.626;23.382;2022-09-11T15:10:48;3.22;;;2.92;;
10005;SDS011;5042;42.626;23.382;2022-09-11T15:13:17;4.72;;;2.83;;
10005;SDS011;5042;42.626;23.382;2022-09-11T15:15:44;4.05;;;3.05;;
10005;SDS011;5042;42.626;23.382;2022-09-11T15:18:11;3.30;;;3.00;;
10005;SDS011;5042;42.626;23.382;2022-09-11T15:20:37;3.30;;;3.00;;
10005;SDS011;5042;42.626;23.382;2022-09-11T15:23:06;3.88;;;3.05;;
10005;SDS011;5042;42.626;23.382;2022-09-11T15:25:33;2.97;;;2.72;;
10005;SDS011;5042;42.626;23.382;2022-09-11T15:27:59;3.78;;;2.80;;
10005;SDS011;5042;42.626;23.382;2022-09-11T15:30:26;4.25;;;2.85;;
10005;SDS011;5042;42.626;23.382;2022-09-11T15:32:53;3.45;;;2.28;;
10005;SDS011;5042;42.626;23.382;2022-09-11T15:35:20;2.85;;;2.40;;
10005;SDS011;5042;42.626;23.382;2022-09-11T15:37:47;3.17;;;2.88;;
10005;SDS011;5042;42.626;23.382;2022-09-11T15:40:16;3.05;;;2.75;;